sensor_id;sensor_type;location;lat;lon;timestamp;pressure;altitude;pressure_sealevel;temperature;humidity
23619;BME280;18207;32.078;34.818;2022-10-16T00:00:04;100551.78;;;30.54;41.43
23619;BME280;18207;32.078;34.818;2022-10-16T00:02:35;100551.78;;;30.54;41.37
23619;BME280;18207;32.078;34.818;2022-10-16T00:05:06;100556.63;;;30.54;41.65
23619;BME280;18207;32.078;34.818;2022-10-16T00:07:36;100557.84;;;30.53;41.46
23619;BME280;18207;32.078;34.818;2022-10-16T00:10:07;100561.09;;;30.51;41.19
23619;BME280;18207;32.078;34.818;2022-10-16T00:12:40;100551.38;;;30.49;41.66
23619;BME280;18207;32.078;34.818;2022-10-16T00:15:10;100561.09;;;30.44;41.45
23619;BME280;18207;32.078;34.818;2022-10-16T00:17:42;100551.34;;;30.42;41.27
23619;BME280;18207;32.078;34.818;2022-10-16T00:20:11;100557.84;;;30.39;41.58
23619;BME280;18207;32.078;34.818;2022-10-16T00:22:42;100560.66;;;30.36;41.68
23619;BME280;18207;32.078;34.818;2022-10-16T00:25:11;100559.06;;;30.35;41.74
23619;BME280;18207;32.078;34.818;2022-10-16T00:27:44;100564.34;;;30.33;41.74
23619;BME280;18207;32.078;34.818;2022-10-16T00:30:15;100562.72;;;30.32;41.34
23619;BME280;18207;32.078;34.818;2022-10-16T00:32:45;100563.50;;;30.29;41.64
23619;BME280;18207;32.078;34.818;2022-10-16T00:35:16;100557.44;;;30.27;41.21
23619;BME280;18207;32.078;34.818;2022-10-16T00:37:47;100563.53;;;30.25;41.70
23619;BME280;18207;32.078;34.818;2022-10-16T00:40:17;100559.88;;;30.25;41.55
23619;BME280;18207;32.078;34.818;2022-10-16T00:42:50;100555.00;;;30.25;41.38
23619;BME280;18207;32.078;34.818;2022-10-16T00:45:20;100552.59;;;30.24;41.49
23619;BME280;18207;32.078;34.818;2022-10-16T00:47:54;100548.53;;;30.25;41.67
23619;BME280;18207;32.078;34.818;2022-10-16T00:50:31;100546.50;;;30.25;41.89
23619;BME280;18207;32.078;34.818;2022-10-16T00:53:03;100543.66;;;30.25;41.18
23619;BME280;18207;32.078;34.818;2022-10-16T00:55:33;100549.75;;;30.27;41.37
23619;BME280;18207;32.078;34.818;2022-10-16T00:58:11;100544.88;;;30.28;41.55
23619;BME280;18207;32.078;34.818;2022-10-16T01:00:41;100543.66;;;30.29;41.24
23619;BME280;18207;32.078;34.818;2022-10-16T01:03:26;100538.81;;;30.29;41.71
23619;BME280;18207;32.078;34.818;2022-10-16T01:06:11;100531.13;;;30.26;41.95
23619;BME280;18207;32.078;34.818;2022-10-16T01:09:13;100535.16;;;30.25;41.79
23619;BME280;18207;32.078;34.818;2022-10-16T01:12:01;100537.59;;;30.23;41.38
23619;BME280;18207;32.078;34.818;2022-10-16T01:14:45;100535.16;;;30.22;41.51
23619;BME280;18207;32.078;34.818;2022-10-16T01:17:22;100528.69;;;30.18;41.60
23619;BME280;18207;32.078;34.818;2022-10-16T01:20:08;100525.84;;;30.14;41.61
23619;BME280;18207;32.078;34.818;2022-10-16T01:22:53;100525.44;;;30.12;41.43
23619;BME280;18207;32.078;34.818;2022-10-16T01:25:42;100528.69;;;30.11;41.57
23619;BME280;18207;32.078;34.818;2022-10-16T01:28:39;100526.28;;;30.09;41.75
23619;BME280;18207;32.078;34.818;2022-10-16T01:31:15;100528.28;;;30.09;41.75
23619;BME280;18207;32.078;34.818;2022-10-16T01:33:53;100529.09;;;30.09;41.38
23619;BME280;18207;32.078;34.818;2022-10-16T01:36:33;100531.53;;;30.11;41.44
23619;BME280;18207;32.078;34.818;2022-10-16T01:39:10;100542.06;;;30.10;41.23
23619;BME280;18207;32.078;34.818;2022-10-16T01:41:47;100543.66;;;30.11;41.24
23619;BME280;18207;32.078;34.818;2022-10-16T01:44:25;100546.91;;;30.13;41.42
23619;BME280;18207;32.078;34.818;2022-10-16T01:47:00;100545.69;;;30.14;41.79
23619;BME280;18207;32.078;34.818;2022-10-16T01:49:36;100548.13;;;30.16;41.42
23619;BME280;18207;32.078;34.818;2022-10-16T01:52:13;100555.41;;;30.17;41.56
23619;BME280;18207;32.078;34.818;2022-10-16T01:54:49;100543.28;;;30.16;41.40
23619;BME280;18207;32.078;34.818;2022-10-16T01:57:26;100550.94;;;30.16;41.32
23619;BME280;18207;32.078;34.818;2022-10-16T02:00:08;100543.28;;;30.16;41.25
23619;BME280;18207;32.078;34.818;2022-10-16T02:02:42;100546.09;;;30.16;41.53
23619;BME280;18207;32.078;34.818;2022-10-16T02:05:20;100547.72;;;30.17;41.64
23619;BME280;18207;32.078;34.818;2022-10-16T02:07:52;100532.72;;;30.17;41.35
23619;BME280;18207;32.078;34.818;2022-10-16T02:10:26;100532.72;;;30.17;41.54
23619;BME280;18207;32.078;34.818;2022-10-16T02:13:05;100531.50;;;30.18;41.29
23619;BME280;18207;32.078;34.818;2022-10-16T02:15:38;100530.72;;;30.17;41.54
23619;BME280;18207;32.078;34.818;2022-10-16T02:18:10;100536.38;;;30.17;41.37
23619;BME280;18207;32.078;34.818;2022-10-16T02:20:48;100532.72;;;30.17;41.39
23619;BME280;18207;32.078;34.818;2022-10-16T02:23:32;100540.44;;;30.16;41.64
23619;BME280;18207;32.078;34.818;2022-10-16T02:26:09;100535.19;;;30.15;41.20
23619;BME280;18207;32.078;34.818;2022-10-16T02:28:46;100525.06;;;30.14;41.31
23619;BME280;18207;32.078;34.818;2022-10-16T02:31:27;100530.72;;;30.14;41.18
23619;BME280;18207;32.078;34.818;2022-10-16T02:34:00;100531.94;;;30.13;41.09
23619;BME280;18207;32.078;34.818;2022-10-16T02:36:35;100540.03;;;30.14;41.13
23619;BME280;18207;32.078;34.818;2022-10-16T02:39:07;100537.59;;;30.13;41.29
23619;BME280;18207;32.078;34.818;2022-10-16T02:41:38;100544.06;;;30.13;41.17
23619;BME280;18207;32.078;34.818;2022-10-16T02:44:08;100538.81;;;30.12;41.04
23619;BME280;18207;32.078;34.818;2022-10-16T02:46:41;100548.13;;;30.12;41.30
23619;BME280;18207;32.078;34.818;2022-10-16T02:49:11;100546.50;;;30.11;41.38
23619;BME280;18207;32.078;34.818;2022-10-16T02:51:42;100541.25;;;30.10;41.41
23619;BME280;18207;32.078;34.818;2022-10-16T02:54:13;100544.91;;;30.10;41.19
23619;BME280;18207;32.078;34.818;2022-10-16T02:56:43;100544.09;;;30.10;40.96
23619;BME280;18207;32.078;34.818;2022-10-16T02:59:14;100531.13;;;30.09;41.51
23619;BME280;18207;32.078;34.818;2022-10-16T03:01:45;100537.63;;;30.09;41.65
23619;BME280;18207;32.078;34.818;2022-10-16T03:04:17;100536.00;;;30.08;41.06
23619;BME280;18207;32.078;34.818;2022-10-16T03:06:47;100533.16;;;30.05;41.19
23619;BME280;18207;32.078;34.818;2022-10-16T03:09:18;100529.09;;;30.02;41.52
23619;BME280;18207;32.078;34.818;2022-10-16T03:11:48;100526.25;;;29.99;41.59
23619;BME280;18207;32.078;34.818;2022-10-16T03:14:20;100523.84;;;29.97;41.18
23619;BME280;18207;32.078;34.818;2022-10-16T03:16:52;100525.47;;;29.95;41.59
23619;BME280;18207;32.078;34.818;2022-10-16T03:19:23;100527.03;;;29.92;41.11
23619;BME280;18207;32.078;34.818;2022-10-16T03:21:54;100525.03;;;29.89;41.14
23619;BME280;18207;32.078;34.818;2022-10-16T03:24:24;100522.56;;;29.88;41.55
23619;BME280;18207;32.078;34.818;2022-10-16T03:26:54;100520.94;;;29.87;41.21
23619;BME280;18207;32.078;34.818;2022-10-16T03:29:24;100512.06;;;29.85;41.25
23619;BME280;18207;32.078;34.818;2022-10-16T03:32:13;100523.41;;;29.85;41.02
23619;BME280;18207;32.078;34.818;2022-10-16T03:34:44;100521.78;;;29.84;41.43
23619;BME280;18207;32.078;34.818;2022-10-16T03:37:14;100510.03;;;29.82;41.34
23619;BME280;18207;32.078;34.818;2022-10-16T03:39:44;100510.03;;;29.82;41.25
23619;BME280;18207;32.078;34.818;2022-10-16T03:42:15;100508.41;;;29.81;41.30
23619;BME280;18207;32.078;34.818;2022-10-16T03:44:45;100511.25;;;29.81;41.02
23619;BME280;18207;32.078;34.818;2022-10-16T03:47:17;100506.00;;;29.79;41.33
23619;BME280;18207;32.078;34.818;2022-10-16T03:49:50;100518.53;;;29.78;41.53
23619;BME280;18207;32.078;34.818;2022-10-16T03:52:20;100515.69;;;29.78;41.58
23619;BME280;18207;32.078;34.818;2022-10-16T03:54:51;100524.22;;;29.78;41.11
23619;BME280;18207;32.078;34.818;2022-10-16T03:57:21;100519.75;;;29.77;41.39
23619;BME280;18207;32.078;34.818;2022-10-16T03:59:52;100510.03;;;29.78;41.55
23619;BME280;18207;32.078;34.818;2022-10-16T04:02:23;100516.50;;;29.79;41.11
23619;BME280;18207;32.078;34.818;2022-10-16T04:04:53;100515.69;;;29.78;41.27
23619;BME280;18207;32.078;34.818;2022-10-16T04:07:23;100517.31;;;29.79;41.22
23619;BME280;18207;32.078;34.818;2022-10-16T04:09:55;100520.16;;;29.79;41.19
23619;BME280;18207;32.078;34.818;2022-10-16T04:12:27;100520.97;;;29.80;41.60
23619;BME280;18207;32.078;34.818;2022-10-16T04:14:57;100523.78;;;29.80;41.07
23619;BME280;18207;32.078;34.818;2022-10-16T04:17:30;100527.44;;;29.80;41.06
23619;BME280;18207;32.078;34.818;2022-10-16T04:20:01;100521.78;;;29.80;41.50
23619;BME280;18207;32.078;34.818;2022-10-16T04:22:31;100530.66;;;29.82;41.06
23619;BME280;18207;32.078;34.818;2022-10-16T04:25:02;100524.63;;;29.84;41.12
23619;BME280;18207;32.078;34.818;2022-10-16T04:27:32;100532.28;;;29.87;41.03
23619;BME280;18207;32.078;34.818;2022-10-16T04:30:03;100539.56;;;29.91;41.58
23619;BME280;18207;32.078;34.818;2022-10-16T04:32:36;100540.84;;;29.97;41.36
23619;BME280;18207;32.078;34.818;2022-10-16T04:35:08;100543.66;;;30.04;41.35
23619;BME280;18207;32.078;34.818;2022-10-16T04:37:38;100540.03;;;30.11;41.36
23619;BME280;18207;32.078;34.818;2022-10-16T04:40:09;100540.84;;;30.18;41.25
23619;BME280;18207;32.078;34.818;2022-10-16T04:42:38;100546.50;;;30.25;41.40
23619;BME280;18207;32.078;34.818;2022-10-16T04:45:09;100547.72;;;30.35;41.63
23619;BME280;18207;32.078;34.818;2022-10-16T04:47:45;100543.25;;;30.44;41.55
23619;BME280;18207;32.078;34.818;2022-10-16T04:50:16;100557.06;;;30.52;41.70
23619;BME280;18207;32.078;34.818;2022-10-16T04:52:46;100555.41;;;30.62;41.92
23619;BME280;18207;32.078;34.818;2022-10-16T04:55:16;100557.41;;;30.72;42.05
23619;BME280;18207;32.078;34.818;2022-10-16T04:57:46;100558.59;;;30.81;42.01
23619;BME280;18207;32.078;34.818;2022-10-16T05:00:20;100556.53;;;30.89;41.57
23619;BME280;18207;32.078;34.818;2022-10-16T05:02:53;100558.94;;;30.97;41.89
23619;BME280;18207;32.078;34.818;2022-10-16T05:05:25;100558.56;;;31.06;41.75
23619;BME280;18207;32.078;34.818;2022-10-16T05:07:55;100571.06;;;31.15;41.62
23619;BME280;18207;32.078;34.818;2022-10-16T05:10:26;100573.47;;;31.24;41.75
23619;BME280;18207;32.078;34.818;2022-10-16T05:12:56;100578.72;;;31.35;41.31
23619;BME280;18207;32.078;34.818;2022-10-16T05:15:26;100576.63;;;31.46;41.65
23619;BME280;18207;32.078;34.818;2022-10-16T05:17:59;100581.06;;;31.58;41.90
23619;BME280;18207;32.078;34.818;2022-10-16T05:20:29;100581.81;;;31.69;41.35
23619;BME280;18207;32.078;34.818;2022-10-16T05:22:59;100584.97;;;31.81;41.79
23619;BME280;18207;32.078;34.818;2022-10-16T05:25:30;100585.28;;;31.94;41.74
23619;BME280;18207;32.078;34.818;2022-10-16T05:28:01;100583.16;;;32.05;41.25
23619;BME280;18207;32.078;34.818;2022-10-16T05:30:31;100590.00;;;32.18;41.10
23619;BME280;18207;32.078;34.818;2022-10-16T05:33:03;100589.09;;;32.31;41.30
23619;BME280;18207;32.078;34.818;2022-10-16T05:35:34;100592.22;;;32.43;41.74
23619;BME280;18207;32.078;34.818;2022-10-16T05:38:05;100592.50;;;32.56;41.59
23619;BME280;18207;32.078;34.818;2022-10-16T05:40:35;100597.72;;;32.68;41.14
23619;BME280;18207;32.078;34.818;2022-10-16T05:43:05;100594.34;;;32.80;41.11
23619;BME280;18207;32.078;34.818;2022-10-16T05:45:35;100592.59;;;32.93;41.55
23619;BME280;18207;32.078;34.818;2022-10-16T05:48:08;100596.91;;;33.04;40.84
23619;BME280;18207;32.078;34.818;2022-10-16T05:50:38;100603.34;;;33.15;41.28
23619;BME280;18207;32.078;34.818;2022-10-16T05:53:08;100603.19;;;33.25;41.02
23619;BME280;18207;32.078;34.818;2022-10-16T05:55:38;100606.34;;;33.34;40.35
23619;BME280;18207;32.078;34.818;2022-10-16T05:58:08;100600.13;;;33.43;40.02
23619;BME280;18207;32.078;34.818;2022-10-16T06:00:38;100603.69;;;33.50;40.65
23619;BME280;18207;32.078;34.818;2022-10-16T06:03:11;100612.56;;;33.59;40.01
23619;BME280;18207;32.078;34.818;2022-10-16T06:05:42;100614.91;;;33.68;39.95
23619;BME280;18207;32.078;34.818;2022-10-16T06:08:12;100615.19;;;33.77;39.99
23619;BME280;18207;32.078;34.818;2022-10-16T06:10:42;100620.34;;;33.85;40.06
23619;BME280;18207;32.078;34.818;2022-10-16T06:13:14;100612.50;;;33.93;39.83
23619;BME280;18207;32.078;34.818;2022-10-16T06:15:45;100614.00;;;34.01;39.81
23619;BME280;18207;32.078;34.818;2022-10-16T06:18:18;100607.78;;;34.09;39.66
23619;BME280;18207;32.078;34.818;2022-10-16T06:20:49;100607.22;;;34.17;39.58
23619;BME280;18207;32.078;34.818;2022-10-16T06:23:21;100598.56;;;34.24;39.12
23619;BME280;18207;32.078;34.818;2022-10-16T06:25:52;100600.06;;;34.32;38.96
23619;BME280;18207;32.078;34.818;2022-10-16T06:28:23;100590.50;;;34.42;38.77
23619;BME280;18207;32.078;34.818;2022-10-16T06:30:59;100592.38;;;34.52;38.55
23619;BME280;18207;32.078;34.818;2022-10-16T06:33:37;100596.31;;;34.62;38.62
23619;BME280;18207;32.078;34.818;2022-10-16T06:36:11;100598.16;;;34.72;38.94
23619;BME280;18207;32.078;34.818;2022-10-16T06:38:42;100604.47;;;34.83;38.96
23619;BME280;18207;32.078;34.818;2022-10-16T06:41:15;100605.53;;;34.92;38.67
23619;BME280;18207;32.078;34.818;2022-10-16T06:43:46;100603.69;;;35.01;38.13
23619;BME280;18207;32.078;34.818;2022-10-16T06:46:19;100609.25;;;35.12;38.48
23619;BME280;18207;32.078;34.818;2022-10-16T06:48:53;100606.63;;;35.21;37.99
23619;BME280;18207;32.078;34.818;2022-10-16T06:51:25;100606.84;;;35.30;37.66
23619;BME280;18207;32.078;34.818;2022-10-16T06:53:56;100605.44;;;35.38;37.47
23619;BME280;18207;32.078;34.818;2022-10-16T06:56:32;100612.19;;;35.47;37.77
23619;BME280;18207;32.078;34.818;2022-10-16T06:59:03;100608.75;;;35.56;37.42
23619;BME280;18207;32.078;34.818;2022-10-16T07:01:33;100602.44;;;35.64;37.20
23619;BME280;18207;32.078;34.818;2022-10-16T07:04:05;100590.41;;;35.73;37.00
23619;BME280;18207;32.078;34.818;2022-10-16T07:06:35;100603.31;;;35.81;37.18
23619;BME280;18207;32.078;34.818;2022-10-16T07:09:09;100597.78;;;35.89;37.02
23619;BME280;18207;32.078;34.818;2022-10-16T07:11:41;100588.59;;;35.98;36.46
23619;BME280;18207;32.078;34.818;2022-10-16T07:14:17;100588.81;;;36.07;36.70
23619;BME280;18207;32.078;34.818;2022-10-16T07:16:48;100582.91;;;36.14;36.26
23619;BME280;18207;32.078;34.818;2022-10-16T07:19:20;100587.19;;;36.22;36.49
23619;BME280;18207;32.078;34.818;2022-10-16T07:21:50;100578.41;;;36.29;36.31
23619;BME280;18207;32.078;34.818;2022-10-16T07:24:21;100572.06;;;36.37;35.96
23619;BME280;18207;32.078;34.818;2022-10-16T07:26:51;100571.91;;;36.44;36.23
23619;BME280;18207;32.078;34.818;2022-10-16T07:29:22;100570.13;;;36.50;35.81
23619;BME280;18207;32.078;34.818;2022-10-16T07:31:52;100571.19;;;36.56;35.75
23619;BME280;18207;32.078;34.818;2022-10-16T07:34:24;100573.06;;;36.63;35.81
23619;BME280;18207;32.078;34.818;2022-10-16T07:36:55;100570.47;;;36.68;35.20
23619;BME280;18207;32.078;34.818;2022-10-16T07:39:26;100569.13;;;36.73;35.67
23619;BME280;18207;32.078;34.818;2022-10-16T07:41:57;100572.66;;;36.76;35.58
23619;BME280;18207;32.078;34.818;2022-10-16T07:44:27;100577.06;;;36.81;34.92
23619;BME280;18207;32.078;34.818;2022-10-16T07:46:58;100580.16;;;36.86;34.97
23619;BME280;18207;32.078;34.818;2022-10-16T07:49:29;100578.88;;;36.91;35.42
23619;BME280;18207;32.078;34.818;2022-10-16T07:52:00;100578.78;;;36.94;34.84
23619;BME280;18207;32.078;34.818;2022-10-16T07:54:30;100578.19;;;36.99;34.96
23619;BME280;18207;32.078;34.818;2022-10-16T07:57:09;100578.47;;;37.05;35.17
23619;BME280;18207;32.078;34.818;2022-10-16T07:59:46;100586.06;;;37.11;34.96
23619;BME280;18207;32.078;34.818;2022-10-16T08:02:18;100579.31;;;37.18;34.81
23619;BME280;18207;32.078;34.818;2022-10-16T08:04:50;100579.56;;;37.23;34.09
23619;BME280;18207;32.078;34.818;2022-10-16T08:07:21;100581.44;;;37.30;34.27
23619;BME280;18207;32.078;34.818;2022-10-16T08:09:52;100592.34;;;37.35;34.11
23619;BME280;18207;32.078;34.818;2022-10-16T08:12:25;100591.81;;;37.40;34.79
23619;BME280;18207;32.078;34.818;2022-10-16T08:14:55;100593.75;;;37.43;34.11
23619;BME280;18207;32.078;34.818;2022-10-16T08:17:26;100597.75;;;37.45;34.53
23619;BME280;18207;32.078;34.818;2022-10-16T08:19:58;100594.81;;;37.49;34.69
23619;BME280;18207;32.078;34.818;2022-10-16T08:22:28;100594.34;;;37.50;34.70
23619;BME280;18207;32.078;34.818;2022-10-16T08:25:00;100593.88;;;37.52;34.38
23619;BME280;18207;32.078;34.818;2022-10-16T08:27:32;100599.63;;;37.52;34.48
23619;BME280;18207;32.078;34.818;2022-10-16T08:30:09;100602.50;;;37.52;34.32
23619;BME280;18207;32.078;34.818;2022-10-16T08:32:40;100592.28;;;37.51;34.25
23619;BME280;18207;32.078;34.818;2022-10-16T08:35:13;100599.31;;;37.50;34.39
23619;BME280;18207;32.078;34.818;2022-10-16T08:37:43;100604.69;;;37.48;34.41
23619;BME280;18207;32.078;34.818;2022-10-16T08:40:20;100597.75;;;37.45;34.40
23619;BME280;18207;32.078;34.818;2022-10-16T08:43:25;100608.09;;;37.43;34.83
23619;BME280;18207;32.078;34.818;2022-10-16T08:46:29;100606.59;;;37.38;34.93
23619;BME280;18207;32.078;34.818;2022-10-16T08:49:09;100606.22;;;37.36;34.56
23619;BME280;18207;32.078;34.818;2022-10-16T08:51:45;100608.78;;;37.34;34.09
23619;BME280;18207;32.078;34.818;2022-10-16T08:54:29;100606.31;;;37.33;34.23
23619;BME280;18207;32.078;34.818;2022-10-16T08:57:12;100622.38;;;37.30;34.13
23619;BME280;18207;32.078;34.818;2022-10-16T08:59:51;100613.06;;;37.26;34.58
23619;BME280;18207;32.078;34.818;2022-10-16T09:02:32;100609.03;;;37.24;34.37
23619;BME280;18207;32.078;34.818;2022-10-16T09:05:57;100610.88;;;37.18;34.30
23619;BME280;18207;32.078;34.818;2022-10-16T09:08:58;100606.47;;;37.13;34.20
23619;BME280;18207;32.078;34.818;2022-10-16T09:11:47;100601.66;;;37.10;34.10
23619;BME280;18207;32.078;34.818;2022-10-16T09:14:50;100604.63;;;37.07;34.88
23619;BME280;18207;32.078;34.818;2022-10-16T09:17:44;100601.41;;;37.05;34.59
23619;BME280;18207;32.078;34.818;2022-10-16T09:20:34;100599.00;;;37.03;34.39
23619;BME280;18207;32.078;34.818;2022-10-16T09:23:16;100606.41;;;37.01;34.36
23619;BME280;18207;32.078;34.818;2022-10-16T09:25:49;100597.47;;;36.99;34.22
23619;BME280;18207;32.078;34.818;2022-10-16T09:28:23;100611.91;;;36.95;34.45
23619;BME280;18207;32.078;34.818;2022-10-16T09:30:53;100597.66;;;36.92;34.69
23619;BME280;18207;32.078;34.818;2022-10-16T09:33:28;100602.22;;;36.89;34.01
23619;BME280;18207;32.078;34.818;2022-10-16T09:36:02;100604.03;;;36.83;34.61
23619;BME280;18207;32.078;34.818;2022-10-16T09:38:35;100597.66;;;36.76;34.71
23619;BME280;18207;32.078;34.818;2022-10-16T09:41:18;100599.13;;;36.68;34.37
23619;BME280;18207;32.078;34.818;2022-10-16T09:43:55;100597.69;;;36.60;34.77
23619;BME280;18207;32.078;34.818;2022-10-16T09:46:30;100595.91;;;36.50;34.76
23619;BME280;18207;32.078;34.818;2022-10-16T09:49:04;100586.66;;;36.43;34.86
23619;BME280;18207;32.078;34.818;2022-10-16T09:51:38;100595.88;;;36.34;35.06
23619;BME280;18207;32.078;34.818;2022-10-16T09:54:16;100599.72;;;36.28;35.09
23619;BME280;18207;32.078;34.818;2022-10-16T09:56:49;100592.13;;;36.21;35.56
23619;BME280;18207;32.078;34.818;2022-10-16T09:59:22;100591.50;;;36.14;34.98
23619;BME280;18207;32.078;34.818;2022-10-16T10:02:00;100578.16;;;36.07;35.56
23619;BME280;18207;32.078;34.818;2022-10-16T10:04:41;100580.75;;;36.02;35.77
23619;BME280;18207;32.078;34.818;2022-10-16T10:07:25;100573.09;;;35.95;35.75
23619;BME280;18207;32.078;34.818;2022-10-16T10:09:58;100577.75;;;35.89;35.27
23619;BME280;18207;32.078;34.818;2022-10-16T10:12:32;100573.78;;;35.83;35.51
23619;BME280;18207;32.078;34.818;2022-10-16T10:15:09;100579.25;;;35.78;35.21
23619;BME280;18207;32.078;34.818;2022-10-16T10:17:48;100573.69;;;35.71;35.23
23619;BME280;18207;32.078;34.818;2022-10-16T10:20:26;100572.59;;;35.65;35.91
23619;BME280;18207;32.078;34.818;2022-10-16T10:22:59;100560.41;;;35.61;36.00
23619;BME280;18207;32.078;34.818;2022-10-16T10:25:49;100560.50;;;35.58;35.41
23619;BME280;18207;32.078;34.818;2022-10-16T10:29:01;100551.25;;;35.50;35.99
23619;BME280;18207;32.078;34.818;2022-10-16T10:31:44;100559.91;;;35.47;35.74
23619;BME280;18207;32.078;34.818;2022-10-16T10:34:40;100562.47;;;35.41;35.53
23619;BME280;18207;32.078;34.818;2022-10-16T10:37:34;100553.28;;;35.34;35.75
23619;BME280;18207;32.078;34.818;2022-10-16T10:40:37;100555.47;;;35.26;36.26
23619;BME280;18207;32.078;34.818;2022-10-16T10:43:39;100547.03;;;35.19;36.16
23619;BME280;18207;32.078;34.818;2022-10-16T10:46:25;100551.56;;;35.17;36.39
23619;BME280;18207;32.078;34.818;2022-10-16T10:49:19;100552.47;;;35.14;35.85
23619;BME280;18207;32.078;34.818;2022-10-16T10:52:10;100548.00;;;35.13;36.11
23619;BME280;18207;32.078;34.818;2022-10-16T10:54:54;100548.88;;;35.10;36.27
23619;BME280;18207;32.078;34.818;2022-10-16T10:57:34;100548.50;;;35.08;36.11
23619;BME280;18207;32.078;34.818;2022-10-16T11:00:23;100552.22;;;35.05;35.86
23619;BME280;18207;32.078;34.818;2022-10-16T11:03:17;100549.00;;;35.03;36.46
23619;BME280;18207;32.078;34.818;2022-10-16T11:06:01;100560.84;;;35.01;36.14
23619;BME280;18207;32.078;34.818;2022-10-16T11:08:41;100558.88;;;34.98;36.11
23619;BME280;18207;32.078;34.818;2022-10-16T11:11:20;100555.66;;;34.96;36.58
23619;BME280;18207;32.078;34.818;2022-10-16T11:13:59;100562.59;;;34.95;36.41
23619;BME280;18207;32.078;34.818;2022-10-16T11:16:39;100556.97;;;34.92;36.17
23619;BME280;18207;32.078;34.818;2022-10-16T11:19:25;100568.03;;;34.90;36.49
23619;BME280;18207;32.078;34.818;2022-10-16T11:22:05;100564.41;;;34.86;36.07
23619;BME280;18207;32.078;34.818;2022-10-16T11:24:46;100561.63;;;34.83;36.62
23619;BME280;18207;32.078;34.818;2022-10-16T11:27:26;100572.69;;;34.81;36.51
23619;BME280;18207;32.078;34.818;2022-10-16T11:30:06;100576.81;;;34.80;36.50
23619;BME280;18207;32.078;34.818;2022-10-16T11:33:06;100577.69;;;34.77;36.62
23619;BME280;18207;32.078;34.818;2022-10-16T11:36:04;100576.13;;;34.72;36.44
23619;BME280;18207;32.078;34.818;2022-10-16T11:38:48;100573.34;;;34.69;36.41
23619;BME280;18207;32.078;34.818;2022-10-16T11:41:28;100580.72;;;34.66;35.95
23619;BME280;18207;32.078;34.818;2022-10-16T11:44:34;100575.06;;;34.63;36.40
23619;BME280;18207;32.078;34.818;2022-10-16T11:47:26;100578.38;;;34.61;36.53
23619;BME280;18207;32.078;34.818;2022-10-16T11:50:26;100572.31;;;34.56;36.46
23619;BME280;18207;32.078;34.818;2022-10-16T11:53:23;100576.03;;;34.53;35.87
23619;BME280;18207;32.078;34.818;2022-10-16T11:55:57;100572.88;;;34.47;36.38
23619;BME280;18207;32.078;34.818;2022-10-16T11:58:32;100581.88;;;34.46;35.97
23619;BME280;18207;32.078;34.818;2022-10-16T12:01:21;100577.03;;;34.43;36.58
23619;BME280;18207;32.078;34.818;2022-10-16T12:04:11;100570.97;;;34.41;36.61
23619;BME280;18207;32.078;34.818;2022-10-16T12:06:52;100590.66;;;34.35;36.91
23619;BME280;18207;32.078;34.818;2022-10-16T12:09:32;100593.53;;;34.32;36.75
23619;BME280;18207;32.078;34.818;2022-10-16T12:12:22;100587.47;;;34.30;37.38
23619;BME280;18207;32.078;34.818;2022-10-16T12:15:20;100594.41;;;34.29;37.32
23619;BME280;18207;32.078;34.818;2022-10-16T12:18:23;100591.97;;;34.27;37.56
23619;BME280;18207;32.078;34.818;2022-10-16T12:20:57;100591.25;;;34.23;37.40
23619;BME280;18207;32.078;34.818;2022-10-16T12:23:37;100605.19;;;34.18;38.09
23619;BME280;18207;32.078;34.818;2022-10-16T12:26:11;100595.47;;;34.15;37.76
23619;BME280;18207;32.078;34.818;2022-10-16T12:28:42;100604.44;;;34.14;37.70
23619;BME280;18207;32.078;34.818;2022-10-16T12:31:17;100600.41;;;34.11;37.80
23619;BME280;18207;32.078;34.818;2022-10-16T12:33:59;100596.75;;;34.11;37.75
23619;BME280;18207;32.078;34.818;2022-10-16T12:36:35;100602.50;;;34.07;38.46
23619;BME280;18207;32.078;34.818;2022-10-16T12:39:24;100605.75;;;34.06;38.57
23619;BME280;18207;32.078;34.818;2022-10-16T12:42:20;100600.50;;;34.04;38.46
23619;BME280;18207;32.078;34.818;2022-10-16T12:44:52;100587.47;;;34.03;38.69
23619;BME280;18207;32.078;34.818;2022-10-16T12:47:36;100580.16;;;34.03;38.31
23619;BME280;18207;32.078;34.818;2022-10-16T12:50:28;100587.91;;;34.02;38.40
23619;BME280;18207;32.078;34.818;2022-10-16T12:53:04;100579.75;;;34.01;38.49
23619;BME280;18207;32.078;34.818;2022-10-16T12:56:00;100587.94;;;33.99;38.73
23619;BME280;18207;32.078;34.818;2022-10-16T12:59:00;100583.13;;;33.96;38.78
23619;BME280;18207;32.078;34.818;2022-10-16T13:01:49;100585.59;;;33.94;38.38
23619;BME280;18207;32.078;34.818;2022-10-16T13:05:08;100591.34;;;33.90;38.12
23619;BME280;18207;32.078;34.818;2022-10-16T13:07:58;100579.56;;;33.88;38.37
23619;BME280;18207;32.078;34.818;2022-10-16T13:10:40;100582.41;;;33.88;38.68
23619;BME280;18207;32.078;34.818;2022-10-16T13:13:41;100588.56;;;33.87;38.24
23619;BME280;18207;32.078;34.818;2022-10-16T13:16:26;100585.31;;;33.85;38.89
23619;BME280;18207;32.078;34.818;2022-10-16T13:19:14;100584.94;;;33.83;38.38
23619;BME280;18207;32.078;34.818;2022-10-16T13:21:58;100580.47;;;33.82;38.41
23619;BME280;18207;32.078;34.818;2022-10-16T13:24:57;100589.06;;;33.78;38.67
23619;BME280;18207;32.078;34.818;2022-10-16T13:27:48;100588.69;;;33.76;38.88
23619;BME280;18207;32.078;34.818;2022-10-16T13:30:25;100589.94;;;33.75;38.57